CheckWX is a tool to help pilots better visualize weather data.  It is not intended as a substitute for an official pre-flight weather briefing.

12:55:31 UTC

KRHI METAR
Rhinelander-Oneida County Airport
Rhinelander, Wisconsin, USA
Current

1 hour ago

KRHI 181153Z AUTO 00000KT 10SM CLR M17/M19 A3021 RMK AO2 SLP267 I1000 I6000 T11671189 11106 21167 53020
Observed
Feb-18 @ 11:53 UTC
Visibility
10 SM
Flight Rules
VFR
Cloud Levels
  • Clear skies
Temperature
-17°C / 1°F
Dewpoint
-19°C / -2°F
Humidity
85%
Altimeter
30.21" Hg
Pressure
1026.7 hPa
Previous

2 hours ago

KRHI 181053Z AUTO 36004KT 10SM CLR M16/M18 A3019 RMK AO2 SLP259 I1000 T11561183
Observed
Feb-18 @ 10:53 UTC
Wind
  • 360° at 4 KTS
Visibility
10 SM
Flight Rules
VFR
Cloud Levels
  • Clear skies
Temperature
-16°C / 3°F
Dewpoint
-18°C / -0°F
Humidity
85%
Altimeter
30.19" Hg
Pressure
1025.9 hPa
Previous

3 hours ago

KRHI 180953Z AUTO 36003KT 10SM CLR M15/M18 A3016 RMK AO2 SLP249 I1000 T11501178
Observed
Feb-18 @ 09:53 UTC
Wind
  • 360° at 3 KTS
Visibility
10 SM
Flight Rules
VFR
Cloud Levels
  • Clear skies
Temperature
-15°C / 5°F
Dewpoint
-18°C / -0°F
Humidity
78%
Altimeter
30.16" Hg
Pressure
1024.9 hPa